sensor_id;sensor_type;location;lat;lon;timestamp;P1;durP1;ratioP1;P2;durP2;ratioP2
24631;SDS011;59977;48.782;9.190;2023-09-19T00:01:46;3.20;;;1.00;;
24631;SDS011;59977;48.782;9.190;2023-09-19T00:04:12;1.40;;;0.90;;
24631;SDS011;59977;48.782;9.190;2023-09-19T00:06:39;1.77;;;1.02;;
24631;SDS011;59977;48.782;9.190;2023-09-19T00:09:06;3.13;;;1.17;;
24631;SDS011;59977;48.782;9.190;2023-09-19T00:11:40;3.15;;;1.23;;
24631;SDS011;59977;48.782;9.190;2023-09-19T00:14:06;2.60;;;1.10;;
24631;SDS011;59977;48.782;9.190;2023-09-19T00:16:34;3.90;;;1.20;;
24631;SDS011;59977;48.782;9.190;2023-09-19T00:19:01;4.97;;;1.13;;
24631;SDS011;59977;48.782;9.190;2023-09-19T00:21:33;3.75;;;1.42;;
24631;SDS011;59977;48.782;9.190;2023-09-19T00:23:59;2.20;;;1.05;;
24631;SDS011;59977;48.782;9.190;2023-09-19T00:26:25;1.85;;;1.15;;
24631;SDS011;59977;48.782;9.190;2023-09-19T00:28:54;2.47;;;1.35;;
24631;SDS011;59977;48.782;9.190;2023-09-19T00:31:22;1.73;;;1.13;;
24631;SDS011;59977;48.782;9.190;2023-09-19T00:33:48;2.67;;;1.30;;
24631;SDS011;59977;48.782;9.190;2023-09-19T00:36:14;2.67;;;1.00;;
24631;SDS011;59977;48.782;9.190;2023-09-19T00:38:39;3.67;;;1.05;;
24631;SDS011;59977;48.782;9.190;2023-09-19T00:41:05;2.47;;;1.10;;
24631;SDS011;59977;48.782;9.190;2023-09-19T00:43:32;4.75;;;1.30;;
24631;SDS011;59977;48.782;9.190;2023-09-19T00:45:59;2.90;;;1.00;;
24631;SDS011;59977;48.782;9.190;2023-09-19T00:48:28;2.95;;;1.10;;
24631;SDS011;59977;48.782;9.190;2023-09-19T00:50:54;1.42;;;0.93;;
24631;SDS011;59977;48.782;9.190;2023-09-19T00:53:21;2.22;;;0.98;;
24631;SDS011;59977;48.782;9.190;2023-09-19T00:55:49;3.40;;;1.20;;
24631;SDS011;59977;48.782;9.190;2023-09-19T00:58:17;6.00;;;1.10;;
24631;SDS011;59977;48.782;9.190;2023-09-19T01:00:43;1.25;;;0.85;;
24631;SDS011;59977;48.782;9.190;2023-09-19T01:03:10;4.10;;;1.02;;
24631;SDS011;59977;48.782;9.190;2023-09-19T01:05:38;4.30;;;0.93;;
24631;SDS011;59977;48.782;9.190;2023-09-19T01:08:04;8.70;;;1.05;;
24631;SDS011;59977;48.782;9.190;2023-09-19T01:10:31;3.47;;;1.20;;
24631;SDS011;59977;48.782;9.190;2023-09-19T01:13:03;1.40;;;0.90;;
24631;SDS011;59977;48.782;9.190;2023-09-19T01:23:21;1.20;;;0.80;;
24631;SDS011;59977;48.782;9.190;2023-09-19T01:29:17;4.00;;;1.00;;
24631;SDS011;59977;48.782;9.190;2023-09-19T01:32:01;2.70;;;0.93;;
24631;SDS011;59977;48.782;9.190;2023-09-19T01:37:12;1.15;;;0.85;;
24631;SDS011;59977;48.782;9.190;2023-09-19T01:39:39;2.53;;;0.95;;
24631;SDS011;59977;48.782;9.190;2023-09-19T01:44:49;3.65;;;0.85;;
24631;SDS011;59977;48.782;9.190;2023-09-19T01:50:40;2.75;;;1.13;;
24631;SDS011;59977;48.782;9.190;2023-09-19T01:53:21;2.72;;;1.02;;
24631;SDS011;59977;48.782;9.190;2023-09-19T01:55:49;2.22;;;0.90;;
24631;SDS011;59977;48.782;9.190;2023-09-19T01:58:37;3.67;;;1.00;;
24631;SDS011;59977;48.782;9.190;2023-09-19T02:01:04;2.30;;;1.05;;
24631;SDS011;59977;48.782;9.190;2023-09-19T02:03:31;4.30;;;0.80;;
24631;SDS011;59977;48.782;9.190;2023-09-19T02:05:58;1.95;;;0.98;;
24631;SDS011;59977;48.782;9.190;2023-09-19T02:08:24;2.17;;;0.90;;
24631;SDS011;59977;48.782;9.190;2023-09-19T02:10:51;3.17;;;0.90;;
24631;SDS011;59977;48.782;9.190;2023-09-19T02:13:21;1.60;;;0.93;;
24631;SDS011;59977;48.782;9.190;2023-09-19T02:15:52;1.95;;;0.90;;
24631;SDS011;59977;48.782;9.190;2023-09-19T02:18:18;2.85;;;0.90;;
24631;SDS011;59977;48.782;9.190;2023-09-19T02:20:45;2.05;;;1.00;;
24631;SDS011;59977;48.782;9.190;2023-09-19T02:23:11;2.50;;;1.17;;
24631;SDS011;59977;48.782;9.190;2023-09-19T02:25:38;1.75;;;0.82;;
24631;SDS011;59977;48.782;9.190;2023-09-19T02:28:05;1.77;;;1.00;;
24631;SDS011;59977;48.782;9.190;2023-09-19T02:30:31;1.63;;;0.90;;
24631;SDS011;59977;48.782;9.190;2023-09-19T02:32:57;2.15;;;1.15;;
24631;SDS011;59977;48.782;9.190;2023-09-19T02:35:26;2.25;;;1.00;;
24631;SDS011;59977;48.782;9.190;2023-09-19T02:37:53;4.20;;;1.00;;
24631;SDS011;59977;48.782;9.190;2023-09-19T02:40:19;1.67;;;0.85;;
24631;SDS011;59977;48.782;9.190;2023-09-19T02:42:45;3.85;;;1.00;;
24631;SDS011;59977;48.782;9.190;2023-09-19T02:45:17;2.22;;;0.80;;
24631;SDS011;59977;48.782;9.190;2023-09-19T02:47:43;2.17;;;0.90;;
24631;SDS011;59977;48.782;9.190;2023-09-19T02:50:09;1.25;;;0.85;;
24631;SDS011;59977;48.782;9.190;2023-09-19T02:52:41;1.13;;;0.80;;
24631;SDS011;59977;48.782;9.190;2023-09-19T02:55:10;2.22;;;1.00;;
24631;SDS011;59977;48.782;9.190;2023-09-19T02:57:38;2.22;;;1.05;;
24631;SDS011;59977;48.782;9.190;2023-09-19T03:00:08;3.78;;;1.00;;
24631;SDS011;59977;48.782;9.190;2023-09-19T03:02:38;3.00;;;1.10;;
24631;SDS011;59977;48.782;9.190;2023-09-19T03:05:06;2.75;;;0.82;;
24631;SDS011;59977;48.782;9.190;2023-09-19T03:07:32;1.60;;;1.02;;
24631;SDS011;59977;48.782;9.190;2023-09-19T03:09:58;3.80;;;1.30;;
24631;SDS011;59977;48.782;9.190;2023-09-19T03:12:25;3.85;;;1.00;;
24631;SDS011;59977;48.782;9.190;2023-09-19T03:14:51;4.82;;;1.05;;
24631;SDS011;59977;48.782;9.190;2023-09-19T03:17:16;1.65;;;1.00;;
24631;SDS011;59977;48.782;9.190;2023-09-19T03:19:44;1.83;;;0.90;;
24631;SDS011;59977;48.782;9.190;2023-09-19T03:22:12;1.30;;;0.90;;
24631;SDS011;59977;48.782;9.190;2023-09-19T03:24:38;1.67;;;0.98;;
24631;SDS011;59977;48.782;9.190;2023-09-19T03:27:04;1.42;;;1.10;;
24631;SDS011;59977;48.782;9.190;2023-09-19T03:29:30;1.38;;;1.00;;
24631;SDS011;59977;48.782;9.190;2023-09-19T03:31:55;3.85;;;1.30;;
24631;SDS011;59977;48.782;9.190;2023-09-19T03:34:21;3.42;;;1.20;;
24631;SDS011;59977;48.782;9.190;2023-09-19T03:36:47;1.92;;;1.00;;
24631;SDS011;59977;48.782;9.190;2023-09-19T03:39:14;3.28;;;1.00;;
24631;SDS011;59977;48.782;9.190;2023-09-19T03:41:41;2.25;;;0.95;;
24631;SDS011;59977;48.782;9.190;2023-09-19T03:44:07;3.92;;;1.00;;
24631;SDS011;59977;48.782;9.190;2023-09-19T03:46:32;1.88;;;1.17;;
24631;SDS011;59977;48.782;9.190;2023-09-19T03:49:00;1.35;;;1.00;;
24631;SDS011;59977;48.782;9.190;2023-09-19T03:51:26;2.20;;;0.82;;
24631;SDS011;59977;48.782;9.190;2023-09-19T03:53:52;2.70;;;1.08;;
24631;SDS011;59977;48.782;9.190;2023-09-19T03:56:18;2.40;;;1.25;;
24631;SDS011;59977;48.782;9.190;2023-09-19T03:58:43;4.50;;;1.00;;
24631;SDS011;59977;48.782;9.190;2023-09-19T04:01:09;2.33;;;1.00;;
24631;SDS011;59977;48.782;9.190;2023-09-19T04:03:35;2.17;;;1.10;;
24631;SDS011;59977;48.782;9.190;2023-09-19T04:06:14;3.75;;;1.30;;
24631;SDS011;59977;48.782;9.190;2023-09-19T04:08:40;3.10;;;1.17;;
24631;SDS011;59977;48.782;9.190;2023-09-19T04:11:07;4.63;;;1.48;;
24631;SDS011;59977;48.782;9.190;2023-09-19T04:13:32;3.10;;;1.10;;
24631;SDS011;59977;48.782;9.190;2023-09-19T04:15:58;6.28;;;1.27;;
24631;SDS011;59977;48.782;9.190;2023-09-19T04:18:24;2.17;;;1.00;;
24631;SDS011;59977;48.782;9.190;2023-09-19T04:20:50;3.08;;;1.40;;
24631;SDS011;59977;48.782;9.190;2023-09-19T04:23:16;2.78;;;1.17;;
24631;SDS011;59977;48.782;9.190;2023-09-19T04:25:42;1.83;;;1.20;;
24631;SDS011;59977;48.782;9.190;2023-09-19T04:28:09;2.28;;;1.20;;
24631;SDS011;59977;48.782;9.190;2023-09-19T04:30:36;3.70;;;1.10;;
24631;SDS011;59977;48.782;9.190;2023-09-19T04:33:02;2.05;;;1.10;;
24631;SDS011;59977;48.782;9.190;2023-09-19T04:35:28;2.78;;;1.20;;
24631;SDS011;59977;48.782;9.190;2023-09-19T04:37:56;4.57;;;1.20;;
24631;SDS011;59977;48.782;9.190;2023-09-19T04:40:23;3.30;;;1.20;;
24631;SDS011;59977;48.782;9.190;2023-09-19T04:42:54;1.98;;;1.17;;
24631;SDS011;59977;48.782;9.190;2023-09-19T04:45:26;3.80;;;1.40;;
24631;SDS011;59977;48.782;9.190;2023-09-19T04:47:52;3.08;;;1.02;;
24631;SDS011;59977;48.782;9.190;2023-09-19T04:50:19;3.03;;;1.30;;
24631;SDS011;59977;48.782;9.190;2023-09-19T04:52:48;5.22;;;1.48;;
24631;SDS011;59977;48.782;9.190;2023-09-19T04:55:16;3.20;;;1.15;;
24631;SDS011;59977;48.782;9.190;2023-09-19T04:57:46;4.53;;;1.42;;
24631;SDS011;59977;48.782;9.190;2023-09-19T05:00:13;3.00;;;1.13;;
24631;SDS011;59977;48.782;9.190;2023-09-19T05:02:41;4.85;;;1.35;;
24631;SDS011;59977;48.782;9.190;2023-09-19T05:05:07;4.05;;;1.30;;
24631;SDS011;59977;48.782;9.190;2023-09-19T05:07:35;4.93;;;1.52;;
24631;SDS011;59977;48.782;9.190;2023-09-19T05:10:01;2.92;;;1.48;;
24631;SDS011;59977;48.782;9.190;2023-09-19T05:12:30;2.15;;;1.40;;
24631;SDS011;59977;48.782;9.190;2023-09-19T05:14:57;4.97;;;1.65;;
24631;SDS011;59977;48.782;9.190;2023-09-19T05:17:23;6.43;;;1.45;;
24631;SDS011;59977;48.782;9.190;2023-09-19T05:19:49;6.43;;;1.10;;
24631;SDS011;59977;48.782;9.190;2023-09-19T05:22:15;5.13;;;1.60;;
24631;SDS011;59977;48.782;9.190;2023-09-19T05:24:43;5.50;;;1.50;;
24631;SDS011;59977;48.782;9.190;2023-09-19T05:27:13;3.13;;;1.40;;
24631;SDS011;59977;48.782;9.190;2023-09-19T05:29:45;7.85;;;1.50;;
24631;SDS011;59977;48.782;9.190;2023-09-19T05:32:14;7.82;;;2.05;;
24631;SDS011;59977;48.782;9.190;2023-09-19T05:34:40;3.20;;;1.52;;
24631;SDS011;59977;48.782;9.190;2023-09-19T05:37:05;5.10;;;1.75;;
24631;SDS011;59977;48.782;9.190;2023-09-19T05:39:32;4.88;;;1.40;;
24631;SDS011;59977;48.782;9.190;2023-09-19T05:41:58;5.10;;;2.08;;
24631;SDS011;59977;48.782;9.190;2023-09-19T05:44:25;3.33;;;1.40;;
24631;SDS011;59977;48.782;9.190;2023-09-19T05:46:51;3.65;;;1.35;;
24631;SDS011;59977;48.782;9.190;2023-09-19T05:49:17;1.85;;;1.13;;
24631;SDS011;59977;48.782;9.190;2023-09-19T05:51:46;7.75;;;1.33;;
24631;SDS011;59977;48.782;9.190;2023-09-19T05:54:12;8.40;;;1.90;;
24631;SDS011;59977;48.782;9.190;2023-09-19T05:56:38;5.57;;;2.03;;
24631;SDS011;59977;48.782;9.190;2023-09-19T05:59:04;7.45;;;2.13;;
24631;SDS011;59977;48.782;9.190;2023-09-19T06:01:30;6.40;;;1.90;;
24631;SDS011;59977;48.782;9.190;2023-09-19T06:03:57;9.93;;;1.85;;
24631;SDS011;59977;48.782;9.190;2023-09-19T06:06:25;8.63;;;2.05;;
24631;SDS011;59977;48.782;9.190;2023-09-19T06:08:51;4.80;;;1.95;;
24631;SDS011;59977;48.782;9.190;2023-09-19T06:11:17;5.85;;;2.30;;
24631;SDS011;59977;48.782;9.190;2023-09-19T06:13:45;5.32;;;1.80;;
24631;SDS011;59977;48.782;9.190;2023-09-19T06:16:12;4.78;;;2.00;;
24631;SDS011;59977;48.782;9.190;2023-09-19T06:18:38;10.48;;;2.25;;
24631;SDS011;59977;48.782;9.190;2023-09-19T06:21:04;3.97;;;1.48;;
24631;SDS011;59977;48.782;9.190;2023-09-19T06:23:33;4.30;;;1.67;;
24631;SDS011;59977;48.782;9.190;2023-09-19T06:25:59;5.07;;;1.83;;
24631;SDS011;59977;48.782;9.190;2023-09-19T06:28:25;5.47;;;1.48;;
24631;SDS011;59977;48.782;9.190;2023-09-19T06:30:53;2.97;;;1.50;;
24631;SDS011;59977;48.782;9.190;2023-09-19T06:33:19;4.20;;;1.80;;
24631;SDS011;59977;48.782;9.190;2023-09-19T06:35:46;3.47;;;1.80;;
24631;SDS011;59977;48.782;9.190;2023-09-19T06:38:13;6.07;;;1.85;;
24631;SDS011;59977;48.782;9.190;2023-09-19T06:40:40;5.45;;;1.92;;
24631;SDS011;59977;48.782;9.190;2023-09-19T06:43:09;10.38;;;2.15;;
24631;SDS011;59977;48.782;9.190;2023-09-19T06:45:35;4.38;;;2.00;;
24631;SDS011;59977;48.782;9.190;2023-09-19T06:48:01;5.78;;;2.10;;
24631;SDS011;59977;48.782;9.190;2023-09-19T06:50:28;14.32;;;2.22;;
24631;SDS011;59977;48.782;9.190;2023-09-19T06:52:56;8.00;;;1.98;;
24631;SDS011;59977;48.782;9.190;2023-09-19T06:55:24;4.22;;;1.98;;
24631;SDS011;59977;48.782;9.190;2023-09-19T06:57:52;5.72;;;1.70;;
24631;SDS011;59977;48.782;9.190;2023-09-19T07:00:22;7.70;;;1.88;;
24631;SDS011;59977;48.782;9.190;2023-09-19T07:03:01;11.88;;;2.00;;
24631;SDS011;59977;48.782;9.190;2023-09-19T07:05:37;9.35;;;2.10;;
24631;SDS011;59977;48.782;9.190;2023-09-19T07:08:04;13.68;;;2.22;;
24631;SDS011;59977;48.782;9.190;2023-09-19T07:10:31;4.70;;;2.20;;
24631;SDS011;59977;48.782;9.190;2023-09-19T07:15:23;7.15;;;2.00;;
24631;SDS011;59977;48.782;9.190;2023-09-19T07:17:53;4.63;;;2.00;;
24631;SDS011;59977;48.782;9.190;2023-09-19T07:20:19;7.75;;;1.88;;
24631;SDS011;59977;48.782;9.190;2023-09-19T07:22:45;6.43;;;2.10;;
24631;SDS011;59977;48.782;9.190;2023-09-19T07:25:13;13.55;;;2.15;;
24631;SDS011;59977;48.782;9.190;2023-09-19T07:27:40;7.85;;;1.67;;
24631;SDS011;59977;48.782;9.190;2023-09-19T07:30:07;6.43;;;1.83;;
24631;SDS011;59977;48.782;9.190;2023-09-19T07:32:33;7.00;;;1.85;;
24631;SDS011;59977;48.782;9.190;2023-09-19T07:35:03;6.18;;;1.88;;
24631;SDS011;59977;48.782;9.190;2023-09-19T07:37:30;4.82;;;1.75;;
24631;SDS011;59977;48.782;9.190;2023-09-19T07:39:58;6.70;;;2.35;;
24631;SDS011;59977;48.782;9.190;2023-09-19T07:42:32;12.10;;;2.15;;
24631;SDS011;59977;48.782;9.190;2023-09-19T07:44:58;6.82;;;1.90;;
24631;SDS011;59977;48.782;9.190;2023-09-19T07:47:24;4.50;;;1.50;;
24631;SDS011;59977;48.782;9.190;2023-09-19T07:49:51;6.35;;;1.73;;
24631;SDS011;59977;48.782;9.190;2023-09-19T07:52:17;3.58;;;1.77;;
24631;SDS011;59977;48.782;9.190;2023-09-19T07:54:44;14.38;;;2.15;;
24631;SDS011;59977;48.782;9.190;2023-09-19T07:57:10;9.30;;;1.80;;
24631;SDS011;59977;48.782;9.190;2023-09-19T07:59:36;9.10;;;1.88;;
24631;SDS011;59977;48.782;9.190;2023-09-19T08:02:03;4.30;;;1.60;;
24631;SDS011;59977;48.782;9.190;2023-09-19T08:04:29;7.55;;;1.60;;
24631;SDS011;59977;48.782;9.190;2023-09-19T08:06:57;2.88;;;1.60;;
24631;SDS011;59977;48.782;9.190;2023-09-19T08:09:25;4.80;;;1.73;;
24631;SDS011;59977;48.782;9.190;2023-09-19T08:11:52;9.10;;;1.95;;
24631;SDS011;59977;48.782;9.190;2023-09-19T08:14:18;8.00;;;2.08;;
24631;SDS011;59977;48.782;9.190;2023-09-19T08:16:44;6.10;;;1.70;;
24631;SDS011;59977;48.782;9.190;2023-09-19T08:19:10;7.68;;;2.00;;
24631;SDS011;59977;48.782;9.190;2023-09-19T08:21:36;10.15;;;1.42;;
24631;SDS011;59977;48.782;9.190;2023-09-19T08:24:02;2.30;;;1.33;;
24631;SDS011;59977;48.782;9.190;2023-09-19T08:26:31;4.90;;;1.40;;
24631;SDS011;59977;48.782;9.190;2023-09-19T08:28:57;12.68;;;1.55;;
24631;SDS011;59977;48.782;9.190;2023-09-19T08:31:23;2.97;;;1.30;;
24631;SDS011;59977;48.782;9.190;2023-09-19T08:33:50;3.60;;;1.50;;
24631;SDS011;59977;48.782;9.190;2023-09-19T08:36:17;5.45;;;1.77;;
24631;SDS011;59977;48.782;9.190;2023-09-19T08:38:43;4.57;;;1.50;;
24631;SDS011;59977;48.782;9.190;2023-09-19T08:41:09;6.45;;;1.48;;
24631;SDS011;59977;48.782;9.190;2023-09-19T08:43:35;2.58;;;1.30;;
24631;SDS011;59977;48.782;9.190;2023-09-19T08:46:09;4.25;;;1.20;;
24631;SDS011;59977;48.782;9.190;2023-09-19T08:51:41;6.75;;;1.83;;
24631;SDS011;59977;48.782;9.190;2023-09-19T08:54:32;5.18;;;1.35;;
24631;SDS011;59977;48.782;9.190;2023-09-19T08:56:58;7.95;;;1.45;;
24631;SDS011;59977;48.782;9.190;2023-09-19T08:59:27;4.53;;;1.52;;
24631;SDS011;59977;48.782;9.190;2023-09-19T09:01:54;3.00;;;1.30;;
24631;SDS011;59977;48.782;9.190;2023-09-19T09:04:21;2.50;;;1.25;;
24631;SDS011;59977;48.782;9.190;2023-09-19T09:06:47;5.65;;;1.50;;
24631;SDS011;59977;48.782;9.190;2023-09-19T09:09:18;4.75;;;1.55;;
24631;SDS011;59977;48.782;9.190;2023-09-19T09:11:44;7.10;;;1.70;;
24631;SDS011;59977;48.782;9.190;2023-09-19T09:14:10;8.65;;;1.88;;
24631;SDS011;59977;48.782;9.190;2023-09-19T09:16:36;5.10;;;1.70;;
24631;SDS011;59977;48.782;9.190;2023-09-19T09:19:02;3.38;;;1.33;;
24631;SDS011;59977;48.782;9.190;2023-09-19T09:21:29;2.47;;;1.30;;
24631;SDS011;59977;48.782;9.190;2023-09-19T09:24:21;8.15;;;1.63;;
24631;SDS011;59977;48.782;9.190;2023-09-19T09:26:54;5.88;;;1.80;;
24631;SDS011;59977;48.782;9.190;2023-09-19T09:32:22;7.32;;;1.67;;
24631;SDS011;59977;48.782;9.190;2023-09-19T09:34:57;5.88;;;1.48;;
24631;SDS011;59977;48.782;9.190;2023-09-19T09:37:23;3.03;;;1.08;;
24631;SDS011;59977;48.782;9.190;2023-09-19T09:42:39;15.63;;;2.33;;
24631;SDS011;59977;48.782;9.190;2023-09-19T09:45:12;9.23;;;2.00;;
24631;SDS011;59977;48.782;9.190;2023-09-19T09:47:45;2.90;;;1.00;;
24631;SDS011;59977;48.782;9.190;2023-09-19T09:50:31;4.45;;;1.42;;
24631;SDS011;59977;48.782;9.190;2023-09-19T09:53:23;2.13;;;1.50;;
24631;SDS011;59977;48.782;9.190;2023-09-19T09:56:09;7.80;;;1.60;;
24631;SDS011;59977;48.782;9.190;2023-09-19T09:58:37;8.98;;;2.30;;
24631;SDS011;59977;48.782;9.190;2023-09-19T10:01:13;9.38;;;2.17;;
24631;SDS011;59977;48.782;9.190;2023-09-19T10:03:41;10.45;;;2.70;;
24631;SDS011;59977;48.782;9.190;2023-09-19T10:06:14;8.38;;;2.78;;
24631;SDS011;59977;48.782;9.190;2023-09-19T10:09:05;9.52;;;2.30;;
24631;SDS011;59977;48.782;9.190;2023-09-19T10:11:35;5.55;;;2.00;;
24631;SDS011;59977;48.782;9.190;2023-09-19T10:14:09;5.70;;;1.70;;
24631;SDS011;59977;48.782;9.190;2023-09-19T10:16:38;9.38;;;2.15;;
24631;SDS011;59977;48.782;9.190;2023-09-19T10:19:06;7.82;;;1.92;;
24631;SDS011;59977;48.782;9.190;2023-09-19T10:21:36;2.80;;;1.70;;
24631;SDS011;59977;48.782;9.190;2023-09-19T10:24:04;3.38;;;1.52;;
24631;SDS011;59977;48.782;9.190;2023-09-19T10:26:34;3.95;;;1.83;;
24631;SDS011;59977;48.782;9.190;2023-09-19T10:29:01;5.10;;;1.55;;
24631;SDS011;59977;48.782;9.190;2023-09-19T10:31:29;2.28;;;1.48;;
24631;SDS011;59977;48.782;9.190;2023-09-19T10:34:00;7.23;;;2.87;;
24631;SDS011;59977;48.782;9.190;2023-09-19T10:36:32;5.95;;;1.42;;
24631;SDS011;59977;48.782;9.190;2023-09-19T10:39:00;2.40;;;1.20;;
24631;SDS011;59977;48.782;9.190;2023-09-19T10:41:29;3.70;;;1.75;;
24631;SDS011;59977;48.782;9.190;2023-09-19T10:43:56;4.22;;;1.77;;
24631;SDS011;59977;48.782;9.190;2023-09-19T10:46:24;4.70;;;1.50;;
24631;SDS011;59977;48.782;9.190;2023-09-19T10:48:50;6.20;;;1.65;;
24631;SDS011;59977;48.782;9.190;2023-09-19T10:51:20;8.73;;;1.63;;
24631;SDS011;59977;48.782;9.190;2023-09-19T10:54:05;4.50;;;1.75;;
24631;SDS011;59977;48.782;9.190;2023-09-19T10:56:52;5.40;;;1.40;;
24631;SDS011;59977;48.782;9.190;2023-09-19T10:59:21;4.90;;;1.25;;
24631;SDS011;59977;48.782;9.190;2023-09-19T11:04:31;4.55;;;1.65;;
24631;SDS011;59977;48.782;9.190;2023-09-19T11:12:11;7.15;;;1.77;;
24631;SDS011;59977;48.782;9.190;2023-09-19T11:14:41;14.35;;;2.40;;
24631;SDS011;59977;48.782;9.190;2023-09-19T11:33:19;2.17;;;1.10;;
24631;SDS011;59977;48.782;9.190;2023-09-19T11:35:59;3.97;;;1.60;;
24631;SDS011;59977;48.782;9.190;2023-09-19T11:43:51;5.82;;;1.40;;
24631;SDS011;59977;48.782;9.190;2023-09-19T11:46:20;8.27;;;1.40;;
24631;SDS011;59977;48.782;9.190;2023-09-19T11:48:50;8.05;;;1.60;;
24631;SDS011;59977;48.782;9.190;2023-09-19T11:51:19;1.67;;;1.00;;
24631;SDS011;59977;48.782;9.190;2023-09-19T11:53:52;7.53;;;1.65;;
24631;SDS011;59977;48.782;9.190;2023-09-19T11:56:19;4.10;;;1.40;;
24631;SDS011;59977;48.782;9.190;2023-09-19T11:58:49;6.40;;;1.33;;
24631;SDS011;59977;48.782;9.190;2023-09-19T12:01:25;4.55;;;1.58;;
24631;SDS011;59977;48.782;9.190;2023-09-19T12:03:55;4.78;;;1.23;;
24631;SDS011;59977;48.782;9.190;2023-09-19T12:06:27;4.05;;;1.20;;
24631;SDS011;59977;48.782;9.190;2023-09-19T12:08:54;3.75;;;1.40;;
24631;SDS011;59977;48.782;9.190;2023-09-19T12:11:22;7.32;;;1.40;;
24631;SDS011;59977;48.782;9.190;2023-09-19T12:13:50;5.38;;;1.17;;
24631;SDS011;59977;48.782;9.190;2023-09-19T12:16:18;9.10;;;1.50;;
24631;SDS011;59977;48.782;9.190;2023-09-19T12:18:48;7.68;;;1.23;;
24631;SDS011;59977;48.782;9.190;2023-09-19T12:21:24;6.40;;;1.33;;
24631;SDS011;59977;48.782;9.190;2023-09-19T12:26:42;6.80;;;1.60;;
24631;SDS011;59977;48.782;9.190;2023-09-19T12:29:18;6.95;;;1.30;;
24631;SDS011;59977;48.782;9.190;2023-09-19T12:31:50;2.63;;;1.38;;
24631;SDS011;59977;48.782;9.190;2023-09-19T12:34:19;4.35;;;1.70;;
24631;SDS011;59977;48.782;9.190;2023-09-19T12:37:03;8.77;;;1.48;;
24631;SDS011;59977;48.782;9.190;2023-09-19T12:39:31;5.30;;;1.38;;
24631;SDS011;59977;48.782;9.190;2023-09-19T12:41:57;2.28;;;1.60;;
24631;SDS011;59977;48.782;9.190;2023-09-19T12:44:23;4.88;;;1.20;;
24631;SDS011;59977;48.782;9.190;2023-09-19T12:46:50;4.20;;;1.38;;
24631;SDS011;59977;48.782;9.190;2023-09-19T12:49:19;5.50;;;1.45;;
24631;SDS011;59977;48.782;9.190;2023-09-19T12:51:46;8.95;;;1.30;;
24631;SDS011;59977;48.782;9.190;2023-09-19T12:54:13;10.23;;;1.70;;
24631;SDS011;59977;48.782;9.190;2023-09-19T12:56:42;4.55;;;1.52;;
24631;SDS011;59977;48.782;9.190;2023-09-19T13:01:40;4.63;;;1.17;;
24631;SDS011;59977;48.782;9.190;2023-09-19T13:04:16;9.40;;;1.80;;
24631;SDS011;59977;48.782;9.190;2023-09-19T13:06:45;7.10;;;1.65;;
24631;SDS011;59977;48.782;9.190;2023-09-19T13:09:13;4.28;;;1.10;;
24631;SDS011;59977;48.782;9.190;2023-09-19T13:11:40;4.68;;;1.80;;
24631;SDS011;59977;48.782;9.190;2023-09-19T13:14:21;2.60;;;1.40;;
24631;SDS011;59977;48.782;9.190;2023-09-19T13:17:00;11.70;;;1.95;;
24631;SDS011;59977;48.782;9.190;2023-09-19T13:24:58;4.07;;;1.58;;
24631;SDS011;59977;48.782;9.190;2023-09-19T13:27:24;6.78;;;1.80;;
24631;SDS011;59977;48.782;9.190;2023-09-19T13:29:52;13.73;;;2.03;;
24631;SDS011;59977;48.782;9.190;2023-09-19T13:32:18;6.75;;;1.65;;
24631;SDS011;59977;48.782;9.190;2023-09-19T13:34:44;7.07;;;1.73;;
24631;SDS011;59977;48.782;9.190;2023-09-19T13:37:09;8.82;;;1.90;;
24631;SDS011;59977;48.782;9.190;2023-09-19T13:39:37;1.90;;;1.27;;
24631;SDS011;59977;48.782;9.190;2023-09-19T13:42:08;7.78;;;2.05;;
24631;SDS011;59977;48.782;9.190;2023-09-19T13:44:37;5.28;;;2.35;;
24631;SDS011;59977;48.782;9.190;2023-09-19T13:47:03;5.25;;;1.75;;
24631;SDS011;59977;48.782;9.190;2023-09-19T13:49:34;1.60;;;1.02;;
24631;SDS011;59977;48.782;9.190;2023-09-19T13:52:01;4.13;;;1.60;;
24631;SDS011;59977;48.782;9.190;2023-09-19T13:54:30;2.78;;;1.40;;
24631;SDS011;59977;48.782;9.190;2023-09-19T13:56:56;4.63;;;1.58;;
24631;SDS011;59977;48.782;9.190;2023-09-19T13:59:22;5.75;;;1.70;;
24631;SDS011;59977;48.782;9.190;2023-09-19T14:01:49;8.90;;;1.73;;
24631;SDS011;59977;48.782;9.190;2023-09-19T14:04:15;4.35;;;1.67;;
24631;SDS011;59977;48.782;9.190;2023-09-19T14:06:42;4.82;;;1.52;;
24631;SDS011;59977;48.782;9.190;2023-09-19T14:09:08;4.25;;;1.25;;
24631;SDS011;59977;48.782;9.190;2023-09-19T14:11:35;2.47;;;1.38;;
24631;SDS011;59977;48.782;9.190;2023-09-19T14:14:01;4.32;;;1.60;;
24631;SDS011;59977;48.782;9.190;2023-09-19T14:16:29;5.80;;;1.90;;
24631;SDS011;59977;48.782;9.190;2023-09-19T14:18:56;21.88;;;2.80;;
24631;SDS011;59977;48.782;9.190;2023-09-19T14:21:23;3.40;;;1.40;;
24631;SDS011;59977;48.782;9.190;2023-09-19T14:23:49;4.60;;;1.45;;
24631;SDS011;59977;48.782;9.190;2023-09-19T14:26:14;4.18;;;1.50;;
24631;SDS011;59977;48.782;9.190;2023-09-19T14:28:43;4.43;;;1.48;;
24631;SDS011;59977;48.782;9.190;2023-09-19T14:31:10;5.05;;;1.30;;
24631;SDS011;59977;48.782;9.190;2023-09-19T14:33:36;2.97;;;1.60;;
24631;SDS011;59977;48.782;9.190;2023-09-19T14:36:07;2.70;;;1.42;;
24631;SDS011;59977;48.782;9.190;2023-09-19T14:38:34;5.00;;;1.38;;
24631;SDS011;59977;48.782;9.190;2023-09-19T14:41:03;1.83;;;1.42;;
24631;SDS011;59977;48.782;9.190;2023-09-19T14:43:30;6.00;;;1.52;;
24631;SDS011;59977;48.782;9.190;2023-09-19T14:45:57;3.33;;;1.40;;
24631;SDS011;59977;48.782;9.190;2023-09-19T14:48:23;4.65;;;1.75;;
24631;SDS011;59977;48.782;9.190;2023-09-19T14:50:51;1.95;;;1.30;;
24631;SDS011;59977;48.782;9.190;2023-09-19T14:53:20;4.43;;;1.20;;
24631;SDS011;59977;48.782;9.190;2023-09-19T14:55:46;3.47;;;1.65;;
24631;SDS011;59977;48.782;9.190;2023-09-19T14:58:16;3.25;;;1.30;;
24631;SDS011;59977;48.782;9.190;2023-09-19T15:00:42;3.60;;;1.80;;
24631;SDS011;59977;48.782;9.190;2023-09-19T15:03:10;6.60;;;1.50;;
24631;SDS011;59977;48.782;9.190;2023-09-19T15:05:36;3.20;;;1.58;;
24631;SDS011;59977;48.782;9.190;2023-09-19T15:08:02;2.67;;;1.40;;
24631;SDS011;59977;48.782;9.190;2023-09-19T15:10:28;3.28;;;1.38;;
24631;SDS011;59977;48.782;9.190;2023-09-19T15:12:55;2.80;;;1.40;;
24631;SDS011;59977;48.782;9.190;2023-09-19T15:15:21;3.65;;;1.60;;
24631;SDS011;59977;48.782;9.190;2023-09-19T15:17:47;2.03;;;1.05;;
24631;SDS011;59977;48.782;9.190;2023-09-19T15:20:13;5.35;;;1.33;;
24631;SDS011;59977;48.782;9.190;2023-09-19T15:22:39;3.72;;;1.27;;
24631;SDS011;59977;48.782;9.190;2023-09-19T15:25:05;2.63;;;1.33;;
24631;SDS011;59977;48.782;9.190;2023-09-19T15:27:31;4.97;;;1.40;;
24631;SDS011;59977;48.782;9.190;2023-09-19T15:29:58;3.05;;;1.30;;
24631;SDS011;59977;48.782;9.190;2023-09-19T15:32:25;2.03;;;1.20;;
24631;SDS011;59977;48.782;9.190;2023-09-19T15:34:51;1.80;;;0.95;;
24631;SDS011;59977;48.782;9.190;2023-09-19T15:37:17;1.70;;;1.15;;
24631;SDS011;59977;48.782;9.190;2023-09-19T15:39:44;4.68;;;1.33;;
24631;SDS011;59977;48.782;9.190;2023-09-19T15:42:11;4.35;;;1.23;;
24631;SDS011;59977;48.782;9.190;2023-09-19T15:44:36;1.63;;;1.10;;
24631;SDS011;59977;48.782;9.190;2023-09-19T15:47:05;4.05;;;1.20;;
24631;SDS011;59977;48.782;9.190;2023-09-19T15:49:31;4.13;;;0.93;;
24631;SDS011;59977;48.782;9.190;2023-09-19T15:51:57;1.42;;;1.02;;
24631;SDS011;59977;48.782;9.190;2023-09-19T15:54:22;2.13;;;1.20;;
24631;SDS011;59977;48.782;9.190;2023-09-19T15:56:51;4.07;;;1.20;;
24631;SDS011;59977;48.782;9.190;2023-09-19T15:59:17;4.60;;;1.25;;
24631;SDS011;59977;48.782;9.190;2023-09-19T16:01:43;6.80;;;1.58;;
24631;SDS011;59977;48.782;9.190;2023-09-19T16:04:09;2.75;;;1.60;;
24631;SDS011;59977;48.782;9.190;2023-09-19T16:06:35;3.30;;;1.30;;